createdAt,value
2023-04-24T00:02:58.251Z,4.10
2023-04-24T00:06:01.976Z,4.10
2023-04-24T00:09:06.285Z,4.10
2023-04-24T00:12:09.133Z,3.83
2023-04-24T00:15:12.926Z,3.93
2023-04-24T00:18:15.842Z,3.63
2023-04-24T00:21:18.650Z,4.35
2023-04-24T00:24:23.162Z,4.15
2023-04-24T00:27:26.099Z,4.20
2023-04-24T00:30:29.062Z,4.07
2023-04-24T00:33:31.911Z,4.27
2023-04-24T00:36:34.634Z,4.07
2023-04-24T00:39:38.916Z,3.92
2023-04-24T00:42:42.342Z,3.95
2023-04-24T00:45:45.642Z,4.27
2023-04-24T00:48:48.805Z,3.37
2023-04-24T00:51:52.156Z,3.78
2023-04-24T00:54:56.662Z,3.95
2023-04-24T00:57:59.452Z,3.67
2023-04-24T01:01:03.688Z,3.90
2023-04-24T01:04:07.881Z,4.00
2023-04-24T01:07:12.430Z,3.85
2023-04-24T01:10:17.977Z,3.95
2023-04-24T01:13:21.167Z,3.70
2023-04-24T01:16:24.033Z,4.03
2023-04-24T01:19:26.945Z,3.70
2023-04-24T01:22:31.160Z,3.75
2023-04-24T01:25:34.394Z,4.72
2023-04-24T01:28:37.434Z,4.43
2023-04-24T01:31:40.765Z,4.07
2023-04-24T01:34:45.065Z,5.00
2023-04-24T01:37:49.151Z,4.30
2023-04-24T01:40:53.162Z,4.68
2023-04-24T01:43:56.064Z,4.40
2023-04-24T01:46:59.070Z,4.30
2023-04-24T01:50:02.042Z,4.77
2023-04-24T01:53:06.480Z,4.88
2023-04-24T01:56:09.448Z,4.57
2023-04-24T01:59:12.929Z,4.32
2023-04-24T02:02:15.707Z,4.60
2023-04-24T02:05:18.781Z,4.60
2023-04-24T02:08:22.871Z,4.68
2023-04-24T02:11:25.824Z,5.15
2023-04-24T02:14:28.880Z,4.50
2023-04-24T02:17:31.739Z,4.50
2023-04-24T02:20:35.169Z,4.30
2023-04-24T02:23:39.260Z,4.68
2023-04-24T02:26:42.085Z,4.75
2023-04-24T02:29:45.032Z,4.78
2023-04-24T02:32:48.119Z,4.70
2023-04-24T02:35:50.916Z,4.87
2023-04-24T02:38:54.955Z,5.40
2023-04-24T02:41:57.784Z,4.45
2023-04-24T02:45:00.792Z,4.88
2023-04-24T02:48:03.732Z,4.90
2023-04-24T02:51:07.583Z,4.80
2023-04-24T02:54:12.072Z,5.13
2023-04-24T02:57:14.751Z,4.90
2023-04-24T03:00:18.055Z,5.10
2023-04-24T03:03:20.897Z,5.20
2023-04-24T03:06:23.921Z,5.40
2023-04-24T03:09:27.970Z,5.47
2023-04-24T03:12:30.821Z,5.93
2023-04-24T03:15:33.731Z,5.47
2023-04-24T03:18:36.424Z,5.73
2023-04-24T03:21:41.645Z,5.40
2023-04-24T03:24:45.747Z,5.75
2023-04-24T03:27:48.831Z,6.30
2023-04-24T03:30:51.677Z,6.00
2023-04-24T03:33:54.366Z,5.87
2023-04-24T03:36:57.209Z,5.73
2023-04-24T03:40:01.245Z,5.60
2023-04-24T03:43:04.099Z,5.20
2023-04-24T03:46:08.081Z,5.07
2023-04-24T03:49:10.904Z,5.20
2023-04-24T03:52:13.734Z,5.10
2023-04-24T03:55:18.011Z,4.80
2023-04-24T03:58:21.096Z,5.20
2023-04-24T04:01:25.098Z,5.38
2023-04-24T04:04:28.067Z,4.73
2023-04-24T04:07:31.869Z,4.80
2023-04-24T04:10:35.972Z,4.95
2023-04-24T04:13:38.747Z,5.28
2023-04-24T04:16:41.458Z,4.85
2023-04-24T04:19:44.593Z,4.70
2023-04-24T04:22:47.705Z,4.60
2023-04-24T04:25:52.875Z,4.25
2023-04-24T04:28:55.912Z,4.95
2023-04-24T04:31:59.449Z,4.60
2023-04-24T04:35:04.281Z,5.50
2023-04-24T04:38:09.476Z,4.43
2023-04-24T04:41:13.758Z,5.05
2023-04-24T04:44:16.742Z,4.50
2023-04-24T04:47:19.906Z,4.32
2023-04-24T04:50:24.061Z,4.77
2023-04-24T04:53:27.018Z,5.00
2023-04-24T04:56:31.748Z,4.43
2023-04-24T04:59:34.798Z,4.68
2023-04-24T05:02:37.884Z,3.45
2023-04-24T05:05:41.796Z,4.83
2023-04-24T05:08:44.795Z,3.90
2023-04-24T05:11:49.072Z,3.88
2023-04-24T05:14:52.011Z,4.13
2023-04-24T05:17:56.216Z,3.47
2023-04-24T05:21:01.166Z,3.60
2023-04-24T05:24:04.208Z,3.70
2023-04-24T05:27:08.470Z,3.70
2023-04-24T05:30:12.269Z,3.78
2023-04-24T05:33:15.543Z,3.42
2023-04-24T05:36:18.483Z,3.50
2023-04-24T05:39:21.528Z,3.23
2023-04-24T05:42:26.166Z,3.70
2023-04-24T05:45:29.182Z,3.67
2023-04-24T05:48:32.022Z,2.95
2023-04-24T05:51:35.009Z,3.30
2023-04-24T05:54:37.893Z,2.83
2023-04-24T05:57:42.298Z,3.08
2023-04-24T06:00:48.076Z,3.03
2023-04-24T06:03:51.239Z,2.65
2023-04-24T06:06:57.246Z,2.50
2023-04-24T06:10:00.067Z,2.67
2023-04-24T06:13:04.541Z,2.20
2023-04-24T06:16:07.688Z,2.40
2023-04-24T06:19:10.798Z,2.05
2023-04-24T06:22:13.838Z,2.10
2023-04-24T06:25:17.036Z,1.97
2023-04-24T06:28:21.397Z,1.48
2023-04-24T06:31:24.563Z,1.50
2023-04-24T06:34:27.607Z,1.35
2023-04-24T06:37:31.031Z,1.43
2023-04-24T06:40:34.498Z,1.30
2023-04-24T06:43:38.810Z,1.20
2023-04-24T06:46:42.034Z,1.08
2023-04-24T06:49:45.414Z,1.30
2023-04-24T06:52:49.018Z,1.50
2023-04-24T06:55:51.946Z,1.00
2023-04-24T06:58:56.405Z,0.95
2023-04-24T07:01:59.629Z,1.00
2023-04-24T07:05:02.826Z,0.80
2023-04-24T07:08:05.995Z,1.30
2023-04-24T07:11:09.145Z,0.93
2023-04-24T07:14:13.676Z,1.08
2023-04-24T07:17:16.720Z,1.00
2023-04-24T07:20:19.765Z,0.80
2023-04-24T07:23:22.825Z,1.10
2023-04-24T07:26:26.018Z,1.30
2023-04-24T07:29:30.413Z,0.90
2023-04-24T07:32:33.370Z,1.05
2023-04-24T07:35:36.926Z,0.90
2023-04-24T07:38:40.126Z,0.67
2023-04-24T07:41:42.990Z,0.57
2023-04-24T07:44:48.747Z,0.70
2023-04-24T07:47:52.883Z,0.85
2023-04-24T07:50:56.497Z,0.80
2023-04-24T07:53:59.415Z,0.77
2023-04-24T07:57:02.879Z,1.00
2023-04-24T08:00:09.020Z,0.70
2023-04-24T08:03:14.057Z,1.00
2023-04-24T08:06:17.177Z,0.70
2023-04-24T08:09:20.263Z,0.67
2023-04-24T08:12:23.124Z,0.70
2023-04-24T08:15:27.344Z,0.70
2023-04-24T08:18:30.319Z,0.60
2023-04-24T08:21:33.366Z,0.50
2023-04-24T08:24:36.311Z,0.80
2023-04-24T08:27:39.893Z,0.90
2023-04-24T08:30:44.459Z,0.55
2023-04-24T08:33:48.501Z,1.02
2023-04-24T08:36:51.861Z,0.52
2023-04-24T08:39:55.589Z,0.70
2023-04-24T08:42:59.059Z,0.70
2023-04-24T08:46:06.627Z,0.60
2023-04-24T08:49:14.754Z,0.90
2023-04-24T08:52:18.220Z,0.65
2023-04-24T08:55:21.762Z,0.80
2023-04-24T08:58:27.360Z,0.83
2023-04-24T09:01:36.073Z,0.70
2023-04-24T09:04:40.145Z,0.80
2023-04-24T09:07:46.861Z,0.90
2023-04-24T09:10:51.316Z,1.00
2023-04-24T09:13:55.563Z,0.90
2023-04-24T09:17:00.057Z,0.73
2023-04-24T09:20:03.404Z,0.65
2023-04-24T09:23:06.296Z,0.70
2023-04-24T09:26:11.981Z,0.90
2023-04-24T09:29:17.968Z,0.83
2023-04-24T09:32:23.818Z,0.80
2023-04-24T09:35:26.780Z,0.80
2023-04-24T09:38:37.357Z,1.17
2023-04-24T09:41:47.228Z,0.77
2023-04-24T09:44:58.912Z,1.00
2023-04-24T09:48:12.155Z,0.70
2023-04-24T09:51:16.313Z,1.05
2023-04-24T09:54:21.118Z,0.70
2023-04-24T09:57:24.076Z,1.10
2023-04-24T10:00:30.907Z,1.00
2023-04-24T10:03:36.154Z,1.10
2023-04-24T10:06:39.863Z,1.25
2023-04-24T10:09:43.226Z,1.17
2023-04-24T10:12:47.174Z,1.30
2023-04-24T10:15:51.205Z,0.77
2023-04-24T10:18:56.729Z,0.80
2023-04-24T10:22:00.415Z,0.98
2023-04-24T10:25:06.902Z,1.10
2023-04-24T10:28:11.330Z,1.03
2023-04-24T10:31:15.070Z,1.00
2023-04-24T10:34:23.023Z,0.90
2023-04-24T10:37:27.956Z,0.82
2023-04-24T10:40:33.845Z,0.98
2023-04-24T10:43:37.842Z,0.90
2023-04-24T10:46:44.541Z,0.80
2023-04-24T10:49:52.660Z,1.00
2023-04-24T10:52:57.915Z,0.60
2023-04-24T10:56:05.481Z,1.00
2023-04-24T10:59:10.877Z,1.00
2023-04-24T11:02:17.263Z,1.00
2023-04-24T11:05:22.870Z,0.90
2023-04-24T11:08:28.625Z,0.80
2023-04-24T11:11:32.519Z,0.98
2023-04-24T11:15:04.246Z,1.23
2023-04-24T11:18:10.314Z,0.97
2023-04-24T11:21:15.434Z,1.00
2023-04-24T11:24:29.846Z,0.80
2023-04-24T11:27:34.421Z,0.50
2023-04-24T11:30:37.519Z,0.80
2023-04-24T11:33:40.776Z,0.73
2023-04-24T11:36:47.827Z,0.80
2023-04-24T11:39:53.712Z,0.80
2023-04-24T11:42:57.368Z,0.90
2023-04-24T11:46:01.932Z,0.80
2023-04-24T11:49:04.814Z,1.20
2023-04-24T11:52:09.382Z,1.05
2023-04-24T11:55:26.907Z,1.05
2023-04-24T11:58:30.029Z,1.00
2023-04-24T12:01:45.182Z,1.00
2023-04-24T12:04:48.266Z,0.93
2023-04-24T12:07:53.182Z,0.90
2023-04-24T12:10:56.478Z,1.20
2023-04-24T12:13:59.417Z,0.90
2023-04-24T12:17:05.549Z,0.80
2023-04-24T12:20:10.379Z,0.97
2023-04-24T12:23:14.838Z,0.68
2023-04-24T12:26:21.192Z,0.90
2023-04-24T12:29:24.600Z,0.75
2023-04-24T12:32:28.463Z,0.90
2023-04-24T12:35:34.606Z,0.60
2023-04-24T12:38:42.227Z,0.70
2023-04-24T12:41:53.385Z,0.70
2023-04-24T12:45:00.165Z,0.70
2023-04-24T12:48:03.319Z,0.70
2023-04-24T12:51:06.854Z,0.90
2023-04-24T12:54:11.691Z,0.70
2023-04-24T12:57:14.718Z,0.80
2023-04-24T13:00:20.199Z,0.90
2023-04-24T13:03:23.863Z,0.90
2023-04-24T13:06:30.430Z,1.10
2023-04-24T13:09:36.980Z,0.90
2023-04-24T13:12:39.995Z,0.90
2023-04-24T13:15:43.054Z,0.82
2023-04-24T13:18:46.132Z,1.10
2023-04-24T13:21:49.009Z,0.90
2023-04-24T13:24:53.440Z,0.70
2023-04-24T13:27:56.358Z,1.05
2023-04-24T13:30:59.696Z,0.95
2023-04-24T13:34:02.866Z,1.10
2023-04-24T13:37:14.129Z,1.10
2023-04-24T13:40:17.248Z,0.97
2023-04-24T13:43:20.152Z,1.00
2023-04-24T13:46:23.190Z,1.15
2023-04-24T13:49:27.090Z,0.80
2023-04-24T13:52:31.353Z,1.00
2023-04-24T13:55:34.584Z,1.00
2023-04-24T13:58:38.980Z,1.00
2023-04-24T14:01:42.082Z,1.00
2023-04-24T14:04:45.304Z,0.88
2023-04-24T14:07:49.910Z,1.23
2023-04-24T14:10:53.143Z,0.90
2023-04-24T14:13:57.283Z,0.90
2023-04-24T14:17:00.410Z,1.00
2023-04-24T14:20:04.573Z,0.88
2023-04-24T14:23:08.731Z,1.03
2023-04-24T14:26:11.829Z,0.80
2023-04-24T14:29:15.495Z,1.02
2023-04-24T14:32:18.663Z,1.20
2023-04-24T14:35:21.508Z,1.00
2023-04-24T14:38:26.044Z,0.87
2023-04-24T14:41:29.001Z,0.90
2023-04-24T14:44:31.763Z,1.13
2023-04-24T14:47:34.767Z,0.98
2023-04-24T14:50:37.964Z,1.10
2023-04-24T14:53:42.288Z,1.20
2023-04-24T14:56:45.858Z,1.00
2023-04-24T14:59:48.953Z,1.30
2023-04-24T15:02:52.670Z,1.23
2023-04-24T15:05:55.764Z,1.20
2023-04-24T15:09:00.363Z,1.27
2023-04-24T15:12:03.641Z,1.00
2023-04-24T15:15:07.761Z,1.30
2023-04-24T15:18:12.683Z,1.40
2023-04-24T15:21:15.792Z,1.08
2023-04-24T15:24:20.250Z,1.10
2023-04-24T15:27:23.294Z,1.50
2023-04-24T15:30:26.229Z,1.30
2023-04-24T15:33:29.320Z,1.20
2023-04-24T15:36:32.167Z,1.10
2023-04-24T15:39:36.613Z,1.20
2023-04-24T15:42:39.455Z,1.23
2023-04-24T15:45:42.458Z,1.00
2023-04-24T15:48:45.600Z,1.13
2023-04-24T15:51:48.723Z,1.13
2023-04-24T15:54:53.251Z,1.00
2023-04-24T15:57:56.338Z,1.00
2023-04-24T16:01:00.062Z,1.10
2023-04-24T16:04:03.300Z,1.15
2023-04-24T16:07:06.482Z,0.80
2023-04-24T16:10:12.072Z,1.07
2023-04-24T16:13:15.005Z,0.90
2023-04-24T16:16:17.882Z,1.02
2023-04-24T16:19:20.783Z,0.90
2023-04-24T16:22:23.597Z,1.00
2023-04-24T16:25:28.143Z,1.10
2023-04-24T16:28:31.786Z,1.13
2023-04-24T16:31:34.821Z,1.30
2023-04-24T16:34:38.021Z,1.05
2023-04-24T16:37:40.808Z,1.23
2023-04-24T16:40:45.824Z,1.33
2023-04-24T16:43:48.876Z,1.30
2023-04-24T16:46:54.105Z,1.10
2023-04-24T16:49:57.172Z,1.00
2023-04-24T16:53:00.311Z,1.00
2023-04-24T16:56:05.399Z,1.20
2023-04-24T16:59:08.592Z,1.10
2023-04-24T17:02:11.776Z,1.30
2023-04-24T17:05:16.080Z,1.35
2023-04-24T17:08:19.540Z,1.40
2023-04-24T17:11:24.303Z,1.50
2023-04-24T17:14:27.372Z,1.40
2023-04-24T17:17:33.396Z,1.13
2023-04-24T17:20:36.538Z,1.00
2023-04-24T17:23:39.519Z,1.10
2023-04-24T17:26:44.034Z,1.33
2023-04-24T17:29:46.950Z,1.27
2023-04-24T17:32:49.973Z,1.20
2023-04-24T17:35:53.242Z,1.17
2023-04-24T17:38:56.470Z,1.30
2023-04-24T17:42:01.500Z,1.73
2023-04-24T17:45:07.811Z,1.30
2023-04-24T17:48:11.006Z,0.93
2023-04-24T17:51:14.062Z,1.00
2023-04-24T17:54:18.249Z,1.08
2023-04-24T17:57:23.005Z,1.30
2023-04-24T18:00:26.192Z,0.90
2023-04-24T18:03:29.383Z,1.30
2023-04-24T18:06:32.706Z,1.17
2023-04-24T18:09:35.704Z,0.85
2023-04-24T18:12:40.231Z,0.80
2023-04-24T18:15:43.657Z,0.70
2023-04-24T18:18:47.132Z,0.85
2023-04-24T18:21:50.278Z,0.80
2023-04-24T18:24:55.261Z,0.47
2023-04-24T18:27:59.619Z,0.70
2023-04-24T18:31:02.962Z,0.60
2023-04-24T18:34:06.245Z,0.40
2023-04-24T18:37:09.351Z,0.60
2023-04-24T18:40:13.024Z,0.55
2023-04-24T18:43:17.856Z,0.70
2023-04-24T18:46:20.782Z,0.57
2023-04-24T18:49:23.922Z,0.63
2023-04-24T18:52:27.039Z,0.77
2023-04-24T18:55:29.889Z,0.60
2023-04-24T18:58:34.301Z,0.50
2023-04-24T19:01:37.394Z,0.60
2023-04-24T19:04:40.606Z,0.93
2023-04-24T19:07:43.787Z,0.80
2023-04-24T19:10:46.757Z,0.80
2023-04-24T19:13:54.221Z,0.70
2023-04-24T19:16:57.111Z,0.80
2023-04-24T19:20:00.480Z,0.70
2023-04-24T19:23:03.633Z,0.80
2023-04-24T19:26:06.564Z,0.70
2023-04-24T19:29:11.879Z,0.97
2023-04-24T19:32:14.859Z,1.00
2023-04-24T19:35:18.099Z,0.85
2023-04-24T19:38:21.689Z,0.90
2023-04-24T19:41:24.772Z,0.77
2023-04-24T19:44:29.272Z,1.10
2023-04-24T19:47:32.234Z,0.97
2023-04-24T19:50:35.336Z,1.13
2023-04-24T19:53:38.341Z,1.10
2023-04-24T19:56:41.204Z,1.25
2023-04-24T19:59:45.763Z,1.23
2023-04-24T20:02:48.738Z,1.20
2023-04-24T20:05:51.838Z,1.30
2023-04-24T20:08:54.798Z,0.93
2023-04-24T20:11:57.755Z,1.15
2023-04-24T20:15:02.256Z,1.33
2023-04-24T20:18:08.031Z,1.10
2023-04-24T20:21:11.535Z,1.67
2023-04-24T20:24:16.322Z,1.25
2023-04-24T20:27:20.232Z,1.48
2023-04-24T20:30:25.627Z,1.43
2023-04-24T20:33:30.290Z,1.43
2023-04-24T20:36:33.779Z,1.40
2023-04-24T20:39:37.055Z,1.50
2023-04-24T20:42:39.970Z,1.77
2023-04-24T20:45:44.440Z,1.80
2023-04-24T20:48:47.446Z,1.73
2023-04-24T20:51:50.564Z,1.80
2023-04-24T20:54:53.635Z,2.10
2023-04-24T20:57:56.586Z,1.75
2023-04-24T21:01:01.237Z,1.97
2023-04-24T21:04:04.588Z,2.10
2023-04-24T21:07:09.458Z,1.92
2023-04-24T21:10:13.422Z,1.80
2023-04-24T21:13:16.409Z,2.20
2023-04-24T21:16:21.156Z,2.40
2023-04-24T21:19:24.090Z,2.13
2023-04-24T21:22:27.060Z,2.20
2023-04-24T21:25:30.287Z,2.10
2023-04-24T21:28:33.652Z,2.22
2023-04-24T21:31:38.201Z,2.40
2023-04-24T21:34:41.176Z,2.80
2023-04-24T21:37:44.327Z,2.42
2023-04-24T21:40:47.381Z,2.58
2023-04-24T21:43:50.973Z,2.42
2023-04-24T21:46:56.043Z,2.53
2023-04-24T21:50:01.380Z,2.83
2023-04-24T21:53:04.442Z,2.78
2023-04-24T21:56:07.860Z,2.90
2023-04-24T21:59:11.258Z,2.97
2023-04-24T22:02:15.985Z,3.23
2023-04-24T22:05:20.245Z,3.10
2023-04-24T22:08:23.513Z,3.10
2023-04-24T22:11:27.679Z,3.08
2023-04-24T22:14:30.600Z,2.75
2023-04-24T22:17:35.321Z,3.30
2023-04-24T22:20:39.815Z,3.10
2023-04-24T22:23:43.147Z,2.67
2023-04-24T22:26:46.116Z,3.28
2023-04-24T22:29:52.228Z,3.08
2023-04-24T22:32:56.822Z,2.92
2023-04-24T22:35:59.778Z,3.15
2023-04-24T22:39:02.689Z,2.63
2023-04-24T22:42:06.249Z,3.28
2023-04-24T22:45:11.696Z,2.70
2023-04-24T22:48:16.519Z,3.20
2023-04-24T22:51:19.354Z,2.80
2023-04-24T22:54:22.373Z,2.45
2023-04-24T22:57:25.427Z,3.08
2023-04-24T23:00:28.581Z,2.88
2023-04-24T23:03:33.306Z,3.20
2023-04-24T23:06:36.394Z,2.83
2023-04-24T23:09:39.433Z,3.15
2023-04-24T23:12:42.608Z,3.45
2023-04-24T23:15:45.715Z,2.95
2023-04-24T23:18:49.950Z,2.65
2023-04-24T23:21:54.132Z,2.60
2023-04-24T23:24:57.365Z,2.45
2023-04-24T23:28:00.939Z,2.67
2023-04-24T23:31:03.875Z,3.10
2023-04-24T23:34:11.137Z,3.00
2023-04-24T23:37:14.087Z,2.60
2023-04-24T23:40:17.201Z,2.55
2023-04-24T23:43:20.204Z,2.70
2023-04-24T23:46:23.235Z,2.30
2023-04-24T23:49:27.796Z,2.38
2023-04-24T23:52:30.842Z,2.40
2023-04-24T23:55:34.359Z,2.30
2023-04-24T23:58:39.014Z,2.13
